createdAt,value
2019-02-21T00:02:41.395Z,134.07
2019-02-21T00:07:44.869Z,77.73
2019-02-21T00:12:49.004Z,48.60
2019-02-21T00:17:52.566Z,37.07
2019-02-21T00:27:59.743Z,28.27
2019-02-21T00:33:03.304Z,33.03
2019-02-21T00:38:06.695Z,29.63
2019-02-21T00:43:10.314Z,32.35
2019-02-21T00:48:14.036Z,75.13
2019-02-21T00:53:18.029Z,744.13
2019-02-21T00:58:22.615Z,1163.63
2019-02-21T01:03:26.412Z,1193.00
2019-02-21T01:08:30.122Z,851.57
2019-02-21T01:13:33.737Z,626.30
2019-02-21T01:18:37.468Z,437.70
2019-02-21T01:28:44.828Z,121.70
2019-02-21T01:33:48.828Z,67.03
2019-02-21T01:38:52.445Z,51.03
2019-02-21T01:43:55.967Z,33.90
2019-02-21T01:48:59.628Z,31.67
2019-02-21T01:54:03.563Z,30.60
2019-02-21T01:59:07.115Z,28.60
2019-02-21T02:04:10.806Z,28.27
2019-02-21T02:09:14.342Z,29.37
2019-02-21T02:14:17.968Z,505.43
2019-02-21T02:19:21.891Z,1197.90
2019-02-21T02:24:27.252Z,891.87
2019-02-21T02:29:30.912Z,887.20
2019-02-21T02:34:34.881Z,1383.50
2019-02-21T02:39:38.795Z,1121.63
2019-02-21T02:44:42.516Z,839.02
2019-02-21T02:59:53.634Z,267.60
2019-02-21T03:04:57.401Z,146.07
2019-02-21T03:10:01.047Z,64.83
2019-02-21T03:15:04.417Z,49.40
2019-02-21T03:20:08.006Z,37.55
2019-02-21T03:25:11.746Z,32.40
2019-02-21T03:30:15.437Z,34.03
2019-02-21T03:35:18.889Z,30.70
2019-02-21T03:40:23.037Z,31.57
2019-02-21T03:45:26.616Z,29.43
2019-02-21T03:50:30.339Z,28.07
2019-02-21T03:55:33.847Z,26.90
2019-02-21T04:00:37.462Z,27.27
2019-02-21T04:05:41.098Z,26.43
2019-02-21T04:10:44.693Z,28.33
2019-02-21T04:15:48.321Z,25.50
2019-02-21T04:20:51.831Z,22.23
2019-02-21T04:25:55.751Z,26.20
2019-02-21T04:30:59.429Z,27.80
2019-02-21T04:36:02.881Z,26.35
2019-02-21T04:41:06.493Z,25.60
2019-02-21T04:46:10.045Z,26.50
2019-02-21T04:51:13.631Z,24.77
2019-02-21T04:56:16.824Z,27.73
2019-02-21T05:01:20.502Z,27.50
2019-02-21T05:06:24.034Z,29.40
2019-02-21T05:11:27.679Z,26.37
2019-02-21T05:16:31.292Z,27.75
2019-02-21T05:21:34.815Z,27.17
2019-02-21T05:26:40.037Z,27.33
2019-02-21T05:32:03.741Z,26.97
2019-02-21T05:37:25.787Z,25.37
2019-02-21T05:48:12.869Z,24.13
2019-02-21T05:53:41.452Z,24.72
2019-02-21T05:58:49.370Z,26.30
2019-02-21T06:04:06.814Z,23.77
2019-02-21T06:09:12.042Z,25.77
2019-02-21T06:14:18.073Z,24.77
2019-02-21T06:19:35.576Z,25.03
2019-02-21T06:24:47.989Z,25.20
2019-02-21T06:29:53.281Z,24.05
2019-02-21T06:34:56.768Z,26.17
2019-02-21T06:40:00.386Z,25.25
2019-02-21T06:45:03.992Z,26.53
2019-02-21T06:50:07.610Z,26.33
2019-02-21T06:55:11.336Z,24.93
2019-02-21T07:00:14.848Z,25.50
2019-02-21T07:05:18.464Z,28.13
2019-02-21T07:10:22.091Z,25.80
2019-02-21T07:15:26.574Z,25.90
2019-02-21T07:25:41.280Z,26.43
2019-02-21T07:30:44.730Z,29.97
2019-02-21T07:35:48.377Z,28.73
2019-02-21T07:40:51.812Z,27.97
2019-02-21T07:45:55.681Z,30.47
2019-02-21T07:56:02.595Z,29.13
2019-02-21T08:06:09.666Z,28.77
2019-02-21T08:16:16.653Z,29.77
2019-02-21T08:26:23.888Z,796.53
2019-02-21T08:31:28.117Z,1092.80
2019-02-21T08:36:31.685Z,1105.33
2019-02-21T08:46:38.914Z,694.17
2019-02-21T08:51:42.763Z,481.93
2019-02-21T08:56:46.474Z,271.40
2019-02-21T09:01:50.118Z,171.60
2019-02-21T09:06:53.591Z,94.50
2019-02-21T09:17:00.587Z,54.00
2019-02-21T09:27:07.601Z,44.73
2019-02-21T09:37:14.571Z,42.53
2019-02-21T09:47:21.558Z,43.53
2019-02-21T09:57:28.527Z,42.00
2019-02-21T10:07:37.130Z,39.20
2019-02-21T10:12:40.733Z,39.07
2019-02-21T10:17:44.333Z,43.30
2019-02-21T10:22:48.636Z,43.47
2019-02-21T10:32:55.615Z,40.43
2019-02-21T10:43:02.585Z,36.80
2019-02-21T10:53:09.570Z,37.90
2019-02-21T11:03:16.627Z,36.80
2019-02-21T11:13:23.803Z,38.30
2019-02-21T11:18:27.400Z,39.00
2019-02-21T11:23:30.857Z,36.93
2019-02-21T11:28:34.689Z,38.80
2019-02-21T11:33:38.292Z,40.70
2019-02-21T11:38:41.738Z,39.03
2019-02-21T11:43:45.334Z,39.00
2019-02-21T11:48:48.779Z,37.90
2019-02-21T11:54:39.329Z,35.57
2019-02-21T11:59:42.843Z,37.23
2019-02-21T12:04:46.792Z,39.00
2019-02-21T12:09:50.483Z,36.53
2019-02-21T12:19:57.617Z,36.23
2019-02-21T12:25:01.283Z,35.47
2019-02-21T12:30:04.845Z,32.63
2019-02-21T12:35:08.663Z,33.40
2019-02-21T12:40:12.292Z,34.15
2019-02-21T12:45:15.792Z,34.00
2019-02-21T12:50:19.410Z,33.07
2019-02-21T12:55:29.308Z,33.70
2019-02-21T13:00:28.389Z,30.67
2019-02-21T13:05:40.341Z,29.67
2019-02-21T13:10:37.351Z,31.37
2019-02-21T13:15:40.868Z,30.73
2019-02-21T13:20:44.685Z,31.13
2019-02-21T13:25:48.299Z,29.40
2019-02-21T13:30:51.817Z,33.13
2019-02-21T13:35:56.036Z,32.20
2019-02-21T13:40:59.662Z,28.83
2019-02-21T13:46:03.378Z,30.23
2019-02-21T13:51:06.975Z,33.20
2019-02-21T14:01:14.629Z,29.73
2019-02-21T14:06:19.361Z,30.15
2019-02-21T14:16:26.714Z,30.33
2019-02-21T14:21:49.323Z,31.70
2019-02-21T14:26:54.258Z,51.83
2019-02-21T14:32:02.367Z,142.13
2019-02-21T14:37:06.220Z,423.50
2019-02-21T14:42:11.562Z,425.03
2019-02-21T14:47:15.413Z,534.85
2019-02-21T14:57:23.229Z,563.30
2019-02-21T15:02:26.838Z,318.67
2019-02-21T15:07:31.887Z,205.10
2019-02-21T15:12:35.788Z,281.13
2019-02-21T15:17:39.770Z,408.23
2019-02-21T15:22:43.507Z,153.40
2019-02-21T15:32:50.871Z,131.13
2019-02-21T15:37:54.801Z,331.87
2019-02-21T15:42:59.072Z,160.43
2019-02-21T15:48:02.972Z,127.30
2019-02-21T15:53:06.925Z,208.13
2019-02-21T15:58:10.685Z,140.60
2019-02-21T16:03:14.872Z,729.83
2019-02-21T16:08:18.856Z,464.90
2019-02-21T16:13:22.832Z,243.93
2019-02-21T16:18:27.969Z,434.80
2019-02-21T16:23:31.727Z,627.30
2019-02-21T16:28:35.939Z,755.87
2019-02-21T16:33:39.663Z,873.55
2019-02-21T16:38:43.381Z,816.77
2019-02-21T16:43:47.078Z,917.27
2019-02-21T16:48:50.887Z,963.97
2019-02-21T16:53:55.207Z,842.67
2019-02-21T16:58:59.634Z,883.37
2019-02-21T17:09:09.305Z,978.60
2019-02-21T17:14:12.794Z,1109.55
2019-02-21T17:19:16.272Z,1113.95
2019-02-21T17:24:19.803Z,1151.93
2019-02-21T17:29:23.840Z,1037.30
2019-02-21T17:34:27.863Z,693.20
2019-02-21T17:39:32.154Z,426.20
2019-02-21T17:44:35.814Z,245.37
2019-02-21T17:49:39.925Z,137.40
2019-02-21T17:54:43.848Z,106.33
2019-02-21T18:00:02.335Z,82.30
2019-02-21T18:05:05.836Z,74.70
2019-02-21T18:10:09.751Z,64.50
2019-02-21T18:15:13.370Z,62.43
2019-02-21T18:20:16.965Z,62.73
2019-02-21T18:25:20.604Z,61.83
2019-02-21T18:30:24.586Z,61.17
2019-02-21T18:35:29.462Z,63.13
2019-02-21T18:45:36.609Z,61.07
2019-02-21T18:50:40.415Z,262.03
2019-02-21T18:55:48.367Z,390.43
2019-02-21T19:00:52.543Z,563.27
2019-02-21T19:06:01.494Z,347.83
2019-02-21T19:11:05.698Z,211.90
2019-02-21T19:16:09.502Z,170.00
2019-02-21T19:21:13.274Z,185.33
2019-02-21T19:26:17.078Z,342.43
2019-02-21T19:31:20.703Z,428.17
2019-02-21T19:36:24.428Z,361.07
2019-02-21T19:41:28.194Z,344.83
2019-02-21T19:46:31.760Z,612.33
2019-02-21T19:51:35.586Z,320.70
2019-02-21T19:56:39.624Z,277.13
2019-02-21T20:01:43.489Z,246.93
2019-02-21T20:06:47.332Z,207.60
2019-02-21T20:11:51.257Z,541.38
2019-02-21T20:16:55.071Z,592.77
2019-02-21T20:21:58.712Z,545.40
2019-02-21T20:27:02.432Z,618.93
2019-02-21T20:32:06.711Z,568.60
2019-02-21T20:37:10.901Z,554.60
2019-02-21T20:42:16.421Z,266.03
2019-02-21T20:47:20.803Z,560.67
2019-02-21T20:52:24.925Z,514.50
2019-02-21T20:57:28.934Z,559.07
2019-02-21T21:02:33.624Z,316.10
2019-02-21T21:07:37.416Z,610.60
2019-02-21T21:12:41.312Z,624.67
2019-02-21T21:17:46.052Z,769.03
2019-02-21T21:22:49.882Z,557.77
2019-02-21T21:27:55.554Z,546.10
2019-02-21T21:33:00.890Z,451.83
2019-02-21T21:38:05.714Z,663.23
2019-02-21T21:43:10.177Z,604.80
2019-02-21T21:48:15.394Z,674.23
2019-02-21T21:53:19.137Z,718.73
2019-02-21T21:58:23.889Z,717.67
2019-02-21T22:03:28.626Z,677.63
2019-02-21T22:13:35.768Z,855.17
2019-02-21T22:18:42.508Z,614.60
2019-02-21T22:23:46.203Z,477.10
2019-02-21T22:28:49.970Z,320.50
2019-02-21T22:33:53.708Z,303.73
2019-02-21T22:38:57.423Z,322.15
2019-02-21T22:44:01.139Z,184.70
2019-02-21T22:49:04.736Z,346.37
2019-02-21T22:54:08.503Z,386.73
2019-02-21T22:59:12.385Z,248.40
